Time;durP1;ratioP1;P1;durP2;ratioP2;P2;SDS_P1;SDS_P2;PMS_P1;PMS_P2;Temp;Humidity;BMP_temperature;BMP_pressure;BME280_temperature;BME280_humidity;BME280_pressure;Samples;Min_cycle;Max_cycle;Signal;HPM_P1;HPM_P2
2022/12/23 00:00:44;;;;;;;76.13;41.75;;;;;;;-0.29;100.00;92958.44;5068552;28;20093;-72
2022/12/23 00:03:11;;;;;;;76.05;41.50;;;;;;;-0.24;100.00;92970.59;5064973;28;20037;-72
2022/12/23 00:05:39;;;;;;;77.20;44.38;;;;;;;-0.31;100.00;92960.34;5061909;28;20060;-72
2022/12/23 00:08:07;;;;;;;78.38;43.88;;;;;;;-0.26;100.00;92969.97;5069090;28;20045;-72
2022/12/23 00:10:34;;;;;;;76.85;45.38;;;;;;;-0.26;100.00;92962.41;5069009;28;20118;-72
2022/12/23 00:15:47;;;;;;;74.38;41.83;;;;;;;-0.30;100.00;92959.38;5071983;28;20531;-73
2022/12/23 00:18:15;;;;;;;65.20;40.72;;;;;;;-0.30;100.00;92961.09;5069547;28;20185;-73
2022/12/23 00:20:41;;;;;;;75.22;48.20;;;;;;;-0.37;100.00;92963.44;5056821;28;20118;-72
2022/12/23 00:23:08;;;;;;;68.82;44.42;;;;;;;-0.29;100.00;92975.31;5069969;28;20040;-73
2022/12/23 00:25:43;;;;;;;73.32;43.17;;;;;;;-0.30;100.00;92966.16;5072256;28;20133;-74
2022/12/23 00:28:14;;;;;;;76.63;43.97;;;;;;;-0.31;100.00;92978.00;5072530;28;20051;-73
2022/12/23 00:30:49;;;;;;;82.30;48.72;;;;;;;-0.34;100.00;92974.97;5071810;28;20052;-73
2022/12/23 00:33:18;;;;;;;88.55;49.03;;;;;;;-0.32;100.00;92978.13;5072869;28;20519;-73
2022/12/23 00:35:45;;;;;;;90.65;49.63;;;;;;;-0.33;100.00;92979.88;5070159;28;20072;-73
2022/12/23 00:38:13;;;;;;;86.55;48.17;;;;;;;-0.34;100.00;92982.53;5055627;28;20044;-73
2022/12/23 00:43:25;;;;;;;100.10;55.40;;;;;;;-0.42;100.00;92978.22;5067152;28;20055;-73
2022/12/23 00:45:51;;;;;;;93.10;51.00;;;;;;;-0.55;100.00;92976.88;5068349;28;20053;-73
2022/12/23 00:51:02;;;;;;;105.30;60.00;;;;;;;-0.97;100.00;92973.25;5070857;28;20051;-73
2022/12/23 00:53:29;;;;;;;115.20;66.05;;;;;;;-1.21;100.00;92987.25;5053481;28;20037;-73
2022/12/23 00:55:56;;;;;;;115.30;61.90;;;;;;;-1.33;100.00;92985.88;5051705;28;20045;-73
2022/12/23 00:58:23;;;;;;;116.68;65.05;;;;;;;-1.42;100.00;92984.19;5051470;28;20452;-73
2022/12/23 01:06:22;;;;;;;147.38;83.82;;;;;;;-1.42;100.00;92981.66;5050936;28;20059;-72
2022/12/23 01:08:48;;;;;;;144.38;81.68;;;;;;;-1.35;100.00;92980.16;5051599;28;20037;-73
2022/12/23 01:11:15;;;;;;;137.57;78.75;;;;;;;-1.15;100.00;92975.00;5051463;28;20539;-72
2022/12/23 01:13:42;;;;;;;139.07;80.05;;;;;;;-1.05;100.00;92978.25;5051072;28;20041;-72
2022/12/23 01:16:11;;;;;;;152.82;83.07;;;;;;;-1.00;100.00;92976.09;5051731;28;20053;-72
2022/12/23 01:18:39;;;;;;;141.52;79.80;;;;;;;-1.03;100.00;92970.53;5051275;28;20045;-73
2022/12/23 01:21:08;;;;;;;146.73;78.22;;;;;;;-0.98;100.00;92980.97;5051434;28;20044;-73
2022/12/23 01:23:35;;;;;;;151.45;86.45;;;;;;;-0.87;100.00;92990.84;5050969;28;20044;-73
2022/12/23 01:26:05;;;;;;;143.10;79.05;;;;;;;-0.95;100.00;92973.13;5050639;28;20468;-73
2022/12/23 01:28:34;;;;;;;129.68;75.93;;;;;;;-0.76;100.00;92987.31;5050813;28;20082;-73
2022/12/23 01:31:01;;;;;;;136.68;73.03;;;;;;;-0.64;100.00;92992.91;5051030;28;20378;-73
2022/12/23 01:33:31;;;;;;;136.60;77.75;;;;;;;-0.57;100.00;92991.38;5050840;28;20037;-73
2022/12/23 01:36:01;;;;;;;120.55;68.05;;;;;;;-0.55;100.00;92992.03;5051062;28;20044;-73
2022/12/23 01:38:28;;;;;;;124.93;70.32;;;;;;;-0.39;100.00;92982.19;5051130;28;20532;-73
2022/12/23 01:40:55;;;;;;;124.97;67.45;;;;;;;-0.33;100.00;92977.34;5051058;28;20037;-73
2022/12/23 01:43:21;;;;;;;116.05;62.13;;;;;;;-0.23;100.00;92977.22;5050465;28;20049;-73
2022/12/23 01:45:48;;;;;;;106.30;60.03;;;;;;;-0.17;100.00;92970.81;5050581;28;20565;-73
2022/12/23 01:48:19;;;;;;;103.85;58.78;;;;;;;-0.15;100.00;92948.72;5050430;28;20041;-73
2022/12/23 01:50:51;;;;;;;91.70;51.90;;;;;;;-0.07;100.00;92951.28;5055819;28;20044;-73
2022/12/23 01:53:24;;;;;;;73.93;42.13;;;;;;;-0.05;100.00;92956.19;5070610;28;20044;-74
2022/12/23 01:55:58;;;;;;;69.32;38.72;;;;;;;0.01;100.00;92964.88;5070827;28;20044;-72
2022/12/23 01:58:28;;;;;;;68.32;39.10;;;;;;;0.07;100.00;92967.59;5070296;28;20488;-72
2022/12/23 02:03:42;;;;;;;59.97;36.50;;;;;;;0.06;100.00;92950.06;5070398;28;20071;-72
2022/12/23 02:11:53;;;;;;;70.57;41.05;;;;;;;0.18;100.00;92958.97;5068610;28;20087;-73
2022/12/23 02:17:25;;;;;;;71.15;42.08;;;;;;;0.22;100.00;92950.13;5048741;28;20141;-73
2022/12/23 02:20:30;;;;;;;64.43;40.38;;;;;;;0.20;100.00;92931.81;5069854;28;20051;-73
2022/12/23 02:23:23;;;;;;;72.28;39.13;;;;;;;0.22;100.00;92916.50;5054451;28;20052;-73
2022/12/23 02:26:08;;;;;;;62.70;36.15;;;;;;;0.06;100.00;92897.84;5069941;28;20049;-73
2022/12/23 02:29:00;;;;;;;64.60;38.90;;;;;;;0.09;100.00;92934.63;5070371;28;20056;-73
2022/12/23 02:31:36;;;;;;;63.75;38.45;;;;;;;0.05;100.00;92926.53;5069803;28;20086;-73
2022/12/23 02:34:11;;;;;;;62.08;37.85;;;;;;;0.00;100.00;92918.66;5069889;28;20048;-73
2022/12/23 02:36:46;;;;;;;84.13;48.15;;;;;;;0.05;100.00;92926.53;5069294;28;20094;-73
2022/12/23 02:39:21;;;;;;;72.53;43.88;;;;;;;-0.04;100.00;92922.44;5070020;28;20094;-73
2022/12/23 02:41:54;;;;;;;72.45;42.97;;;;;;;0.01;100.00;92920.25;5058335;28;20119;-72
2022/12/23 02:44:30;;;;;;;75.65;44.17;;;;;;;0.07;100.00;92916.28;5069730;28;20350;-73
2022/12/23 02:47:02;;;;;;;79.55;44.75;;;;;;;0.15;100.00;92918.88;5069765;28;20048;-72
2022/12/23 02:49:33;;;;;;;69.53;41.00;;;;;;;0.01;100.00;92920.25;5069548;28;20045;-72
2022/12/23 02:52:05;;;;;;;68.68;40.17;;;;;;;0.05;100.00;92906.34;5068598;28;20048;-72
2022/12/23 02:54:36;;;;;;;62.55;38.90;;;;;;;-0.11;100.00;92878.50;5070026;28;20045;-72
2022/12/23 02:57:06;;;;;;;71.70;40.13;;;;;;;-0.05;100.00;92875.41;5069172;28;20040;-72
2022/12/23 02:59:39;;;;;;;68.53;41.03;;;;;;;0.21;100.00;92910.66;5069560;28;20565;-72
2022/12/23 03:02:08;;;;;;;77.88;44.38;;;;;;;0.34;100.00;92910.22;5069705;28;20044;-73
2022/12/23 03:04:37;;;;;;;67.25;39.83;;;;;;;0.45;100.00;92926.81;5069745;28;20041;-72
2022/12/23 03:07:05;;;;;;;66.63;41.25;;;;;;;0.38;100.00;92919.06;5069411;28;20385;-72
2022/12/23 03:09:43;;;;;;;76.88;45.65;;;;;;;0.50;100.00;92914.53;5069279;28;20613;-72
2022/12/23 03:12:19;;;;;;;67.20;38.75;;;;;;;0.45;100.00;92888.91;5069992;28;20049;-72
2022/12/23 03:14:58;;;;;;;83.45;48.85;;;;;;;0.63;100.00;92910.75;5069592;28;20094;-73
2022/12/23 03:17:42;;;;;;;71.38;43.13;;;;;;;0.70;100.00;92904.13;5068943;28;20566;-73
2022/12/23 03:20:14;;;;;;;69.13;42.10;;;;;;;0.75;100.00;92917.06;5069552;28;20132;-73
2022/12/23 03:22:48;;;;;;;120.88;67.47;;;;;;;0.70;100.00;92901.59;5069163;28;20052;-73
2022/12/23 03:25:23;;;;;;;74.00;42.47;;;;;;;0.77;100.00;92905.09;5069254;28;20052;-72
2022/12/23 03:27:55;;;;;;;60.92;37.70;;;;;;;0.72;100.00;92911.53;5069090;28;20550;-73
2022/12/23 03:30:23;;;;;;;61.90;41.30;;;;;;;0.25;100.00;92911.94;5068886;28;20049;-73
2022/12/23 03:32:55;;;;;;;70.85;41.08;;;;;;;0.29;100.00;92916.69;5069438;28;20442;-73
2022/12/23 03:35:27;;;;;;;67.90;41.17;;;;;;;0.23;100.00;92908.78;5069166;28;20106;-73
2022/12/23 03:37:55;;;;;;;76.78;44.03;;;;;;;0.33;100.00;92923.00;5069266;28;20090;-73
2022/12/23 03:40:24;;;;;;;83.43;48.70;;;;;;;0.16;100.00;92912.88;5069132;28;20113;-73
2022/12/23 03:42:57;;;;;;;95.35;52.95;;;;;;;-0.04;100.00;92915.63;5068788;28;20458;-72
2022/12/23 03:45:28;;;;;;;100.18;54.25;;;;;;;-0.24;100.00;92920.13;5068864;28;20052;-72
2022/12/23 03:48:02;;;;;;;95.05;52.63;;;;;;;-0.14;100.00;92913.22;5067928;28;20053;-72
2022/12/23 03:50:32;;;;;;;98.07;53.88;;;;;;;-0.02;100.00;92918.00;5057676;28;20049;-72
2022/12/23 03:53:02;;;;;;;90.10;52.50;;;;;;;0.08;100.00;92920.41;5068865;28;20044;-72
2022/12/23 03:55:35;;;;;;;91.28;52.88;;;;;;;0.16;100.00;92922.16;5065108;28;20045;-73
2022/12/23 03:58:10;;;;;;;94.05;54.17;;;;;;;0.11;100.00;92904.94;5060129;28;20044;-73
2022/12/23 04:00:44;;;;;;;101.70;59.30;;;;;;;0.17;100.00;92918.69;5068766;28;20052;-73
2022/12/23 04:03:19;;;;;;;94.85;55.70;;;;;;;0.18;100.00;92926.13;5068959;28;20285;-72
2022/12/23 04:05:53;;;;;;;95.50;53.80;;;;;;;0.24;100.00;92928.03;5068992;28;20106;-72
2022/12/23 04:08:25;;;;;;;95.35;55.13;;;;;;;0.26;100.00;92923.63;5068631;28;20048;-72
2022/12/23 04:10:53;;;;;;;91.40;54.10;;;;;;;0.41;100.00;92928.06;5068678;28;20053;-72
2022/12/23 04:13:19;;;;;;;102.28;57.33;;;;;;;0.47;100.00;92934.25;5068662;28;20048;-72
2022/12/23 04:15:46;;;;;;;109.30;58.95;;;;;;;0.52;100.00;92932.84;5068957;28;20447;-72
2022/12/23 04:18:15;;;;;;;100.53;58.10;;;;;;;0.58;100.00;92928.09;5068886;28;20048;-72
2022/12/23 04:20:41;;;;;;;106.43;57.95;;;;;;;0.63;100.00;92936.81;5068497;28;20143;-72
2022/12/23 04:23:08;;;;;;;94.75;55.17;;;;;;;0.70;100.00;92924.34;5068664;28;20044;-72
2022/12/23 04:25:35;;;;;;;92.97;56.10;;;;;;;0.71;100.00;92927.66;5068379;28;20045;-72
2022/12/23 04:28:02;;;;;;;90.35;52.78;;;;;;;0.74;100.00;92922.31;5068424;28;20105;-72
2022/12/23 04:30:28;;;;;;;89.35;52.20;;;;;;;0.78;100.00;92916.78;5068547;28;20508;-72
2022/12/23 04:32:55;;;;;;;82.55;47.10;;;;;;;0.82;100.00;92924.81;5068154;28;20048;-72
2022/12/23 04:35:23;;;;;;;86.57;49.95;;;;;;;0.64;100.00;92899.69;5068612;28;20052;-72
2022/12/23 04:37:50;;;;;;;83.55;48.88;;;;;;;0.91;100.00;92943.31;5068114;28;20048;-72
2022/12/23 04:40:17;;;;;;;90.40;51.72;;;;;;;0.92;100.00;92940.66;5068674;28;20114;-72
2022/12/23 04:42:43;;;;;;;98.47;53.38;;;;;;;0.92;100.00;92935.59;5068176;28;20079;-72
2022/12/23 04:45:11;;;;;;;93.35;52.67;;;;;;;0.95;100.00;92931.16;5060205;28;20181;-72
2022/12/23 04:47:37;;;;;;;100.53;55.92;;;;;;;0.93;100.00;92929.56;5066080;28;20048;-72
2022/12/23 04:50:05;;;;;;;97.70;54.33;;;;;;;1.01;100.00;92925.47;5067191;28;20041;-72
2022/12/23 04:52:33;;;;;;;99.57;55.95;;;;;;;1.05;100.00;92924.19;5067849;28;20050;-72
2022/12/23 04:55:00;;;;;;;94.35;52.97;;;;;;;1.02;100.00;92907.59;5068363;28;20048;-72
2022/12/23 04:57:26;;;;;;;91.18;53.95;;;;;;;0.98;100.00;92926.59;5054358;28;20776;-72
2022/12/23 04:59:53;;;;;;;103.45;61.35;;;;;;;0.89;100.00;92930.06;5069073;28;20455;-72
2022/12/23 05:02:20;;;;;;;97.63;57.33;;;;;;;0.95;100.00;92919.31;5071658;28;20048;-72
2022/12/23 05:04:46;;;;;;;102.53;60.58;;;;;;;0.90;100.00;92922.31;5071497;28;20099;-72
2022/12/23 05:07:13;;;;;;;104.20;58.83;;;;;;;1.00;100.00;92939.88;5051278;28;20125;-72
2022/12/23 05:09:41;;;;;;;97.93;63.45;;;;;;;0.89;100.00;92933.34;5059515;28;20566;-72
2022/12/23 05:12:08;;;;;;;99.40;57.95;;;;;;;0.60;100.00;92931.28;5062792;28;20558;-72
2022/12/23 05:14:34;;;;;;;108.22;59.90;;;;;;;0.44;100.00;92932.84;5065141;28;20110;-72
2022/12/23 05:17:01;;;;;;;107.15;60.38;;;;;;;0.40;100.00;92934.06;5071786;28;20044;-72
2022/12/23 05:19:28;;;;;;;119.13;66.30;;;;;;;0.26;100.00;92943.03;5071883;28;20044;-73
2022/12/23 05:21:55;;;;;;;117.22;62.85;;;;;;;0.16;100.00;92940.66;5071810;28;20048;-72
2022/12/23 05:24:21;;;;;;;108.88;60.60;;;;;;;-0.07;100.00;92905.84;5069011;28;20040;-72
2022/12/23 05:26:49;;;;;;;108.32;61.35;;;;;;;0.27;100.00;92937.03;5071741;28;20048;-72
2022/12/23 05:29:16;;;;;;;105.22;57.85;;;;;;;0.36;100.00;92937.84;5071437;28;20040;-72
2022/12/23 05:31:43;;;;;;;114.05;60.10;;;;;;;0.46;100.00;92942.78;5071313;28;20459;-71
2022/12/23 05:34:10;;;;;;;106.18;57.65;;;;;;;0.56;100.00;92935.88;5071182;28;20052;-71
2022/12/23 05:36:36;;;;;;;99.10;56.15;;;;;;;0.68;100.00;92936.34;5071272;28;20044;-72
2022/12/23 05:39:03;;;;;;;100.28;57.38;;;;;;;0.64;100.00;92940.13;5070689;28;20044;-72
2022/12/23 05:41:30;;;;;;;99.13;57.42;;;;;;;0.73;100.00;92933.34;5063453;28;20098;-72
2022/12/23 05:43:58;;;;;;;104.25;58.15;;;;;;;0.86;100.00;92946.34;5071469;28;20094;-72
2022/12/23 05:46:25;;;;;;;96.15;59.35;;;;;;;0.95;100.00;92953.91;5070828;28;20496;-72
2022/12/23 05:48:51;;;;;;;97.00;56.60;;;;;;;1.02;100.00;92952.34;5070405;28;20044;-72
2022/12/23 05:51:18;;;;;;;94.53;54.20;;;;;;;1.08;100.00;92955.97;5069730;28;20554;-72
2022/12/23 05:53:45;;;;;;;94.32;53.13;;;;;;;1.07;100.00;92960.28;5070693;28;20045;-73
2022/12/23 05:56:11;;;;;;;91.97;54.10;;;;;;;1.09;100.00;92968.47;5071093;28;20075;-73
2022/12/23 05:58:38;;;;;;;100.32;58.15;;;;;;;1.14;100.00;92963.75;5070883;28;20043;-72
2022/12/23 06:01:06;;;;;;;102.57;59.97;;;;;;;1.11;100.00;92970.84;5070693;28;20114;-71
2022/12/23 06:03:33;;;;;;;91.55;56.45;;;;;;;1.04;100.00;92958.03;5070941;28;20056;-72
2022/12/23 06:06:00;;;;;;;144.05;74.35;;;;;;;1.10;100.00;92959.94;5070797;28;20090;-72
2022/12/23 06:08:26;;;;;;;126.72;67.55;;;;;;;1.19;100.00;92961.53;5070485;28;20052;-72
2022/12/23 06:10:53;;;;;;;100.05;57.25;;;;;;;1.11;100.00;92956.44;5069801;28;20090;-72
2022/12/23 06:13:20;;;;;;;98.85;53.20;;;;;;;1.24;100.00;92966.09;5069045;28;20045;-72
2022/12/23 06:15:47;;;;;;;103.10;56.70;;;;;;;1.25;100.00;92972.75;5050965;28;20107;-72
2022/12/23 06:18:15;;;;;;;104.38;62.92;;;;;;;1.31;100.00;92978.91;5063629;28;20044;-72
2022/12/23 06:20:45;;;;;;;98.90;60.72;;;;;;;1.27;100.00;92973.38;5062959;28;20470;-72
2022/12/23 06:23:11;;;;;;;93.72;55.95;;;;;;;1.29;100.00;92971.47;5070618;28;20056;-72
2022/12/23 06:25:38;;;;;;;100.65;58.47;;;;;;;1.24;100.00;92977.97;5070804;28;20431;-72
2022/12/23 06:28:06;;;;;;;126.88;68.65;;;;;;;1.23;100.00;92972.13;5069601;28;20055;-72
2022/12/23 06:30:33;;;;;;;114.65;61.67;;;;;;;1.31;100.00;92979.69;5070052;28;20052;-72
2022/12/23 06:33:02;;;;;;;108.10;63.35;;;;;;;1.35;100.00;92984.44;5070189;28;20044;-72
2022/12/23 06:35:30;;;;;;;107.30;56.75;;;;;;;1.37;100.00;92985.88;5070529;28;20040;-72
2022/12/23 06:37:56;;;;;;;100.55;58.97;;;;;;;1.40;100.00;92985.56;5069983;28;20467;-73
2022/12/23 06:40:23;;;;;;;107.15;63.47;;;;;;;1.37;100.00;92970.69;5066669;28;20041;-72
2022/12/23 06:42:50;;;;;;;100.43;60.00;;;;;;;1.45;100.00;92980.03;5067634;28;20090;-73
2022/12/23 06:45:16;;;;;;;112.43;65.03;;;;;;;1.46;100.00;92984.13;5068270;28;20048;-73
2022/12/23 06:47:44;;;;;;;124.88;68.88;;;;;;;1.50;100.00;92982.88;5066412;28;20520;-73
2022/12/23 06:50:11;;;;;;;124.47;71.97;;;;;;;1.52;100.00;92980.19;5069254;28;20048;-72
2022/12/23 06:52:39;;;;;;;112.30;70.90;;;;;;;1.49;100.00;92983.03;5069798;28;20053;-72
2022/12/23 06:55:06;;;;;;;112.38;70.90;;;;;;;1.49;100.00;92985.56;5069334;28;20113;-73
2022/12/23 06:57:33;;;;;;;189.00;116.95;;;;;;;1.58;100.00;92987.91;5069615;28;20466;-73
2022/12/23 07:00:00;;;;;;;239.60;139.90;;;;;;;1.60;100.00;92983.50;5069415;28;20458;-72
2022/12/23 07:02:27;;;;;;;178.60;114.95;;;;;;;1.64;100.00;92981.44;5069933;28;20036;-72
2022/12/23 07:04:53;;;;;;;134.38;86.40;;;;;;;1.67;100.00;92977.78;5069735;28;20048;-72
2022/12/23 07:07:20;;;;;;;142.70;83.03;;;;;;;1.69;100.00;92988.53;5069208;28;20083;-72
2022/12/23 07:09:48;;;;;;;134.77;80.63;;;;;;;1.67;100.00;92978.56;5069275;28;20075;-73
2022/12/23 07:12:15;;;;;;;133.32;79.00;;;;;;;1.73;100.00;92982.97;5060637;28;20053;-73
2022/12/23 07:14:41;;;;;;;131.63;78.07;;;;;;;1.72;100.00;92978.09;5054125;28;20509;-73
2022/12/23 07:17:08;;;;;;;137.98;83.47;;;;;;;1.77;100.00;92990.28;5069394;28;20044;-73
2022/12/23 07:19:35;;;;;;;141.35;84.55;;;;;;;1.78;100.00;92984.25;5069266;28;20048;-73
2022/12/23 07:22:02;;;;;;;152.18;84.20;;;;;;;1.83;100.00;92979.50;5068995;28;20101;-72
2022/12/23 07:24:28;;;;;;;162.80;92.43;;;;;;;1.82;100.00;92978.72;5068754;28;20101;-73
2022/12/23 07:26:56;;;;;;;485.20;258.85;;;;;;;1.89;100.00;92985.66;5069319;28;20097;-72
2022/12/23 07:29:23;;;;;;;202.65;113.57;;;;;;;1.97;100.00;92990.69;5068529;28;20135;-72
2022/12/23 07:31:50;;;;;;;159.40;93.80;;;;;;;1.98;100.00;92995.59;5069319;28;20048;-72
2022/12/23 07:34:16;;;;;;;171.18;98.63;;;;;;;2.07;100.00;93001.44;5069223;28;20098;-72
2022/12/23 07:36:43;;;;;;;171.80;97.22;;;;;;;2.13;100.00;93003.31;5068785;28;20095;-72
2022/12/23 07:39:10;;;;;;;153.50;89.22;;;;;;;2.16;100.00;93007.28;5068570;28;20458;-72
2022/12/23 07:41:37;;;;;;;267.77;139.48;;;;;;;2.20;100.00;93000.13;5069344;28;20048;-72
2022/12/23 07:44:05;;;;;;;174.18;101.53;;;;;;;2.26;100.00;93005.34;5068496;28;20545;-72
2022/12/23 07:46:32;;;;;;;151.82;91.72;;;;;;;2.25;100.00;93018.97;5067364;28;20470;-72
2022/12/23 07:48:58;;;;;;;364.35;203.52;;;;;;;2.32;100.00;93003.13;5068743;28;20098;-72
2022/12/23 07:51:25;;;;;;;192.57;111.20;;;;;;;2.31;100.00;93001.53;5068748;28;20500;-73
2022/12/23 07:53:52;;;;;;;164.20;102.70;;;;;;;2.40;100.00;93015.75;5055629;28;20044;-72
2022/12/23 07:56:19;;;;;;;279.73;211.35;;;;;;;2.47;100.00;93010.81;5068831;28;20090;-72
2022/12/23 07:58:48;;;;;;;173.23;112.80;;;;;;;2.47;100.00;93009.09;5068491;28;20459;-72
2022/12/23 08:01:18;;;;;;;178.32;109.97;;;;;;;2.24;100.00;92968.44;5068779;28;20105;-72
2022/12/23 08:03:44;;;;;;;156.23;94.25;;;;;;;2.54;100.00;93014.28;5068387;28;20052;-73
2022/12/23 08:06:13;;;;;;;157.52;90.75;;;;;;;2.57;100.00;93015.69;5068763;28;20045;-72
2022/12/23 08:08:41;;;;;;;159.80;97.15;;;;;;;2.50;100.00;92993.53;5067372;28;20044;-73
2022/12/23 08:11:10;;;;;;;134.63;77.63;;;;;;;2.68;100.00;93020.38;5066414;28;20396;-72
2022/12/23 08:13:39;;;;;;;118.80;74.60;;;;;;;2.71;100.00;93020.06;5062873;28;20444;-72
2022/12/23 08:16:07;;;;;;;106.00;65.90;;;;;;;2.73;100.00;93030.81;5042802;28;20090;-72
2022/12/23 08:18:36;;;;;;;109.22;62.65;;;;;;;2.69;100.00;93036.41;5068595;28;20048;-72
2022/12/23 08:21:05;;;;;;;109.15;60.70;;;;;;;2.67;100.00;93039.09;5068491;28;20049;-72
2022/12/23 08:23:32;;;;;;;89.55;54.53;;;;;;;2.39;100.00;92991.34;5068331;28;20040;-72
2022/12/23 08:26:00;;;;;;;97.45;56.78;;;;;;;2.69;100.00;93029.59;5068795;28;20094;-72
2022/12/23 08:28:27;;;;;;;99.40;55.35;;;;;;;2.64;100.00;93019.16;5068507;28;20048;-72
2022/12/23 08:30:54;;;;;;;106.00;63.85;;;;;;;2.51;100.00;93017.16;5068751;28;20098;-72
2022/12/23 08:33:21;;;;;;;96.82;56.65;;;;;;;2.60;100.00;93018.69;5068257;28;20106;-72
2022/12/23 08:35:54;;;;;;;92.05;53.60;;;;;;;2.61;100.00;93019.47;5071039;28;20094;-72
2022/12/23 08:38:21;;;;;;;92.68;53.30;;;;;;;2.66;100.00;93024.84;5071773;28;20050;-72
2022/12/23 08:40:47;;;;;;;163.27;85.07;;;;;;;2.72;100.00;93015.81;5072269;28;20098;-72
2022/12/23 08:43:14;;;;;;;211.02;108.43;;;;;;;2.84;100.00;93016.19;5072261;28;20044;-72
2022/12/23 08:45:41;;;;;;;109.20;60.97;;;;;;;2.91;100.00;93017.91;5066202;28;20923;-71
2022/12/23 08:48:08;;;;;;;82.82;49.25;;;;;;;2.88;100.00;93010.63;5072043;28;20097;-71
2022/12/23 08:50:37;;;;;;;86.70;50.00;;;;;;;2.91;100.00;93005.22;5072568;28;20082;-71
2022/12/23 08:53:06;;;;;;;102.55;61.20;;;;;;;3.10;100.00;93020.19;5071853;28;20449;-71
2022/12/23 08:55:37;;;;;;;104.15;59.85;;;;;;;3.15;100.00;93016.16;5071710;28;20492;-71
2022/12/23 08:58:04;;;;;;;102.05;62.50;;;;;;;3.27;100.00;93015.78;5071983;28;20467;-72
2022/12/23 09:00:31;;;;;;;103.38;62.70;;;;;;;3.36;100.00;93006.34;5071830;28;20045;-71
2022/12/23 09:02:57;;;;;;;92.45;54.55;;;;;;;3.40;100.00;93010.94;5071610;28;20568;-71
2022/12/23 09:05:24;;;;;;;89.28;55.88;;;;;;;3.51;100.00;93019.13;5067695;28;20045;-71
2022/12/23 09:07:52;;;;;;;111.07;66.85;;;;;;;3.59;100.00;93008.88;5067984;28;20094;-71
2022/12/23 09:10:22;;;;;;;115.50;68.03;;;;;;;3.64;100.00;93010.91;5072022;28;20052;-72
2022/12/23 09:12:49;;;;;;;108.63;69.28;;;;;;;3.71;100.00;93009.25;5071821;28;20499;-71
2022/12/23 09:15:16;;;;;;;134.25;76.15;;;;;;;3.79;100.00;93010.94;5063320;28;20048;-71
2022/12/23 09:17:44;;;;;;;134.70;79.03;;;;;;;3.80;100.00;93010.75;5071444;28;20052;-71
2022/12/23 09:20:12;;;;;;;163.00;86.55;;;;;;;3.88;100.00;93004.81;5071830;28;20051;-71
2022/12/23 09:22:38;;;;;;;195.50;99.50;;;;;;;3.82;100.00;92988.53;5070237;28;20048;-71
2022/12/23 09:25:06;;;;;;;192.98;96.88;;;;;;;3.97;100.00;93003.78;5071064;28;20481;-72
2022/12/23 09:27:39;;;;;;;153.00;81.30;;;;;;;3.92;100.00;92995.88;5070857;28;20113;-71
2022/12/23 09:30:07;;;;;;;165.18;89.68;;;;;;;4.01;100.00;93015.19;5070829;28;20696;-71
2022/12/23 09:32:34;;;;;;;157.80;84.00;;;;;;;4.06;100.00;93013.84;5072842;28;20044;-71
2022/12/23 09:35:01;;;;;;;123.80;73.55;;;;;;;4.05;100.00;93013.09;5060864;28;20085;-71
2022/12/23 09:37:27;;;;;;;136.52;75.93;;;;;;;4.06;100.00;93012.09;5051476;28;20501;-71
2022/12/23 09:39:54;;;;;;;116.82;66.32;;;;;;;4.03;100.00;93004.81;5071588;28;20044;-71
2022/12/23 09:42:49;;;;;;;110.03;64.63;;;;;;;4.10;100.00;93015.88;5071053;28;20048;-71
2022/12/23 09:45:25;;;;;;;80.20;44.53;;;;;;;4.04;100.00;93013.25;5071204;28;20045;-71
2022/12/23 09:47:55;;;;;;;77.57;43.53;;;;;;;3.97;100.00;93023.31;5071198;28;20036;-71
2022/12/23 09:50:26;;;;;;;76.35;43.95;;;;;;;3.93;100.00;93012.72;5070677;28;21021;-71
2022/12/23 09:53:00;;;;;;;82.45;47.08;;;;;;;4.03;100.00;93009.13;5070993;28;20048;-71
2022/12/23 09:55:36;;;;;;;76.88;42.85;;;;;;;4.15;100.00;93015.34;5070860;28;20047;-70
2022/12/23 09:58:18;;;;;;;86.88;48.53;;;;;;;4.24;100.00;93006.69;5071061;28;20052;-70
2022/12/23 10:00:56;;;;;;;74.85;42.58;;;;;;;4.36;100.00;93008.78;5071007;28;20106;-70
2022/12/23 10:03:28;;;;;;;91.68;55.03;;;;;;;4.46;100.00;93004.22;5068248;28;20093;-71
2022/12/23 10:06:02;;;;;;;84.30;49.33;;;;;;;4.60;100.00;93005.19;5060819;28;20090;-70
2022/12/23 10:08:34;;;;;;;75.55;44.30;;;;;;;4.66;100.00;92990.94;5069796;28;20443;-70
2022/12/23 10:11:05;;;;;;;79.72;48.88;;;;;;;4.71;100.00;92993.75;5070500;28;20052;-71
2022/12/23 10:13:38;;;;;;;92.00;52.35;;;;;;;4.62;100.00;92990.50;5070187;28;20098;-71
2022/12/23 10:16:08;;;;;;;106.05;64.82;;;;;;;4.66;100.00;92979.03;5070656;28;20052;-70
2022/12/23 10:18:44;;;;;;;91.55;55.97;;;;;;;4.78;100.00;92991.28;5070672;28;20084;-71
2022/12/23 10:21:16;;;;;;;101.82;60.60;;;;;;;4.64;100.00;92964.91;5064871;28;20542;-70
2022/12/23 10:23:48;;;;;;;109.60;67.07;;;;;;;4.91;100.00;92990.63;5068565;28;20501;-70
2022/12/23 10:26:22;;;;;;;107.90;65.60;;;;;;;5.01;100.00;92968.22;5070304;28;20213;-70
2022/12/23 10:28:59;;;;;;;116.72;68.32;;;;;;;5.28;100.00;92973.53;5070252;28;20388;-70
2022/12/23 10:31:36;;;;;;;120.43;69.03;;;;;;;5.40;100.00;92973.84;5069589;28;20584;-70
2022/12/23 10:34:12;;;;;;;101.30;63.05;;;;;;;5.50;100.00;92970.97;5070296;28;20390;-70
2022/12/23 10:36:49;;;;;;;115.50;64.32;;;;;;;5.60;100.00;92978.31;5070154;28;20037;-70
2022/12/23 10:39:24;;;;;;;112.32;63.55;;;;;;;5.72;100.00;92969.19;5070216;28;20098;-70
2022/12/23 10:42:01;;;;;;;116.20;69.38;;;;;;;5.89;100.00;92976.56;5070414;28;20098;-70
2022/12/23 10:44:49;;;;;;;124.70;72.28;;;;;;;5.97;100.00;92966.22;5070200;28;20057;-70
2022/12/23 10:47:25;;;;;;;125.20;70.65;;;;;;;6.07;100.00;92957.47;5070084;28;20118;-70
2022/12/23 10:49:57;;;;;;;;;;;;;;;6.10;100.00;92962.97;5045239;28;20443;-70
2022/12/23 10:52:27;;;;;;;104.72;60.25;;;;;;;6.19;100.00;92943.22;5069923;28;19999;-70
2022/12/23 10:54:54;;;;;;;169.00;82.90;;;;;;;6.36;100.00;92953.09;5069878;28;20048;-70
2022/12/23 10:57:22;;;;;;;138.82;75.55;;;;;;;6.45;100.00;92958.81;5068910;28;20668;-70
2022/12/23 10:59:50;;;;;;;142.75;75.57;;;;;;;6.49;100.00;92965.13;5069972;28;20090;-70
2022/12/23 11:02:46;;;;;;;90.22;54.90;;;;;;;6.47;100.00;92951.78;5069614;28;20095;-70
2022/12/23 11:05:15;;;;;;;98.47;56.85;;;;;;;6.70;100.00;92961.66;5069592;28;20041;-70
2022/12/23 11:07:43;;;;;;;88.13;49.95;;;;;;;6.84;100.00;92959.94;5069394;28;20074;-70
2022/12/23 11:10:16;;;;;;;81.07;47.40;;;;;;;6.91;100.00;92950.50;5069602;28;20411;-70
2022/12/23 11:12:46;;;;;;;74.30;43.20;;;;;;;6.89;98.86;92960.16;5069284;28;20094;-70
2022/12/23 11:15:30;;;;;;;78.47;46.40;;;;;;;6.96;98.54;92965.28;5069416;28;20045;-70
2022/12/23 11:17:59;;;;;;;72.70;41.63;;;;;;;6.93;97.77;92963.91;5068400;28;20056;-70
2022/12/23 11:20:26;;;;;;;63.10;36.78;;;;;;;6.93;98.60;92960.53;5069043;28;20040;-70
2022/12/23 11:22:57;;;;;;;59.70;33.42;;;;;;;6.81;100.00;92943.22;5069568;28;20110;-70
2022/12/23 11:25:30;;;;;;;65.43;34.03;;;;;;;6.99;100.00;92959.00;5045616;28;20072;-70
2022/12/23 11:28:01;;;;;;;59.33;34.80;;;;;;;6.99;100.00;92957.22;5067514;28;20042;-70
2022/12/23 11:30:32;;;;;;;57.67;34.53;;;;;;;7.09;98.14;92970.41;5068708;28;20053;-70
2022/12/23 11:33:01;;;;;;;63.90;34.95;;;;;;;6.95;98.43;92956.03;5055773;28;20114;-69
2022/12/23 11:35:30;;;;;;;57.38;32.22;;;;;;;7.04;98.30;92959.97;5069353;28;20048;-70
2022/12/23 11:37:58;;;;;;;61.80;33.85;;;;;;;6.98;99.75;92954.88;5069070;28;20090;-70
2022/12/23 11:40:28;;;;;;;58.38;31.98;;;;;;;7.01;99.70;92962.94;5068683;28;20550;-70
2022/12/23 11:42:58;;;;;;;56.38;31.63;;;;;;;6.93;100.00;92952.88;5062414;28;20045;-70
2022/12/23 11:45:34;;;;;;;60.00;35.15;;;;;;;6.79;100.00;92929.88;5062881;28;20123;-70
2022/12/23 11:48:02;;;;;;;66.93;36.03;;;;;;;7.06;100.00;92955.47;5069166;28;20048;-70